Time;durP1;ratioP1;P1;durP2;ratioP2;P2;SDS_P1;SDS_P2;PMS_P1;PMS_P2;Temp;Humidity;BMP_temperature;BMP_pressure;BME280_temperature;BME280_humidity;BME280_pressure;Samples;Min_cycle;Max_cycle;Signal;HPM_P1;HPM_P2
2022/09/26 00:01:54;;;;;;;2.22;1.73;;;11.10;99.90;;;;;;4987743;28;20500;-76
2022/09/26 00:04:25;;;;;;;7.95;1.92;;;11.10;99.90;;;;;;4980172;28;20560;-76
2022/09/26 00:06:53;;;;;;;10.45;1.70;;;11.20;99.90;;;;;;4988162;28;20133;-77
2022/09/26 00:09:20;;;;;;;4.22;1.48;;;11.10;99.90;;;;;;4986816;28;20054;-77
2022/09/26 00:11:46;;;;;;;4.57;2.05;;;11.30;99.90;;;;;;4988068;28;20181;-78
2022/09/26 00:14:15;;;;;;;8.93;3.10;;;11.20;99.90;;;;;;4984409;28;20137;-76
2022/09/26 00:16:41;;;;;;;5.55;1.85;;;11.20;99.90;;;;;;4988706;28;20054;-78
2022/09/26 00:19:06;;;;;;;5.55;1.30;;;11.40;99.90;;;;;;4981623;28;20043;-75
2022/09/26 00:21:33;;;;;;;8.18;2.80;;;11.40;99.90;;;;;;4983440;28;20105;-77
2022/09/26 00:24:00;;;;;;;6.57;1.52;;;11.20;99.90;;;;;;4980990;28;20098;-75
2022/09/26 00:26:29;;;;;;;7.20;2.53;;;11.30;99.90;;;;;;4987636;28;20054;-77
2022/09/26 00:28:55;;;;;;;6.55;1.60;;;11.30;99.90;;;;;;5004231;28;20133;-77
2022/09/26 00:31:27;;;;;;;3.70;1.00;;;11.30;99.90;;;;;;5026255;28;20048;-77
2022/09/26 00:33:53;;;;;;;4.53;2.03;;;11.40;99.90;;;;;;5026931;28;20053;-75
2022/09/26 00:36:19;;;;;;;5.25;2.60;;;11.50;99.90;;;;;;5019756;28;20057;-77
2022/09/26 00:38:44;;;;;;;3.25;1.15;;;11.30;99.90;;;;;;5018304;28;20044;-78
2022/09/26 00:41:11;;;;;;;4.05;1.75;;;11.60;99.90;;;;;;5021982;28;20050;-75
2022/09/26 00:43:46;;;;;;;3.85;2.00;;;11.50;99.90;;;;;;5024145;28;20037;-77
2022/09/26 00:46:39;;;;;;;13.65;2.63;;;11.50;99.90;;;;;;5026427;28;22025;-77
2022/09/26 00:49:20;;;;;;;8.57;1.77;;;11.30;99.90;;;;;;5024438;28;20057;-76
2022/09/26 00:51:54;;;;;;;15.32;2.88;;;11.50;99.90;;;;;;5024882;28;20516;-76
2022/09/26 00:54:19;;;;;;;4.32;1.83;;;11.40;99.90;;;;;;5026139;28;20052;-79
2022/09/26 00:56:49;;;;;;;5.53;1.30;;;11.30;99.90;;;;;;5005711;28;20038;-74
2022/09/26 00:59:21;;;;;;;8.43;1.15;;;11.40;99.90;;;;;;5010968;28;20041;-77
2022/09/26 01:01:50;;;;;;;5.72;1.90;;;11.60;99.90;;;;;;5006189;28;20536;-78
2022/09/26 01:04:16;;;;;;;11.70;1.80;;;11.40;99.90;;;;;;5026848;28;20049;-77
2022/09/26 01:06:44;;;;;;;2.97;1.38;;;11.50;99.90;;;;;;5026469;28;20033;-77
2022/09/26 01:09:11;;;;;;;4.57;1.55;;;11.60;99.90;;;;;;5027047;28;20046;-76
2022/09/26 01:11:39;;;;;;;10.00;2.38;;;11.40;99.90;;;;;;5026267;28;20049;-78
2022/09/26 01:14:08;;;;;;;2.67;1.50;;;11.60;99.90;;;;;;4998856;28;20049;-77
2022/09/26 01:16:35;;;;;;;2.38;1.25;;;11.30;99.90;;;;;;5009627;28;20037;-76
2022/09/26 01:19:07;;;;;;;3.45;1.88;;;11.40;99.90;;;;;;5009012;28;20049;-75
2022/09/26 01:21:53;;;;;;;3.35;1.55;;;11.30;99.90;;;;;;5024512;28;20683;-76
2022/09/26 01:24:54;;;;;;;6.78;2.30;;;11.20;99.90;;;;;;5026735;28;20400;-77
2022/09/26 01:27:37;;;;;;;3.78;1.70;;;11.50;99.90;;;;;;5015746;28;20054;-76
2022/09/26 01:30:26;;;;;;;5.95;1.40;;;11.40;99.90;;;;;;5022085;28;20050;-77
2022/09/26 01:33:07;;;;;;;16.98;3.28;;;11.40;99.90;;;;;;5017014;28;20056;-77
2022/09/26 01:36:03;;;;;;;10.95;2.33;;;11.40;99.90;;;;;;4999450;28;20041;-74
2022/09/26 01:39:06;;;;;;;3.88;1.27;;;11.20;99.90;;;;;;5024702;28;20393;-75
2022/09/26 01:42:14;;;;;;;7.03;2.38;;;11.40;99.90;;;;;;5024143;28;20052;-78
2022/09/26 01:45:20;;;;;;;3.85;1.30;;;11.30;99.90;;;;;;5024077;28;20041;-75
2022/09/26 01:48:09;;;;;;;9.85;2.20;;;11.50;99.90;;;;;;4945762;28;20078;-76
2022/09/26 01:50:54;;;;;;;7.38;2.40;;;11.40;99.90;;;;;;5017260;28;20110;-75
2022/09/26 01:53:29;;;;;;;8.40;2.38;;;11.30;99.90;;;;;;5021112;28;20045;-76
2022/09/26 01:56:05;;;;;;;4.40;1.60;;;11.50;99.90;;;;;;5026772;28;20072;-77
2022/09/26 01:58:41;;;;;;;7.72;2.15;;;11.40;99.90;;;;;;5023954;28;20392;-76
2022/09/26 02:01:11;;;;;;;5.13;2.10;;;11.20;99.90;;;;;;5025978;28;20077;-77
2022/09/26 02:03:45;;;;;;;4.97;2.55;;;11.20;99.90;;;;;;5010830;28;20412;-78
2022/09/26 02:06:17;;;;;;;4.82;2.20;;;11.30;99.90;;;;;;5027807;28;20045;-75
2022/09/26 02:08:51;;;;;;;4.15;3.05;;;11.30;99.90;;;;;;5008791;28;20051;-76
2022/09/26 02:11:18;;;;;;;6.53;2.15;;;11.10;99.90;;;;;;5027364;28;20045;-76
2022/09/26 02:14:02;;;;;;;7.05;2.00;;;11.20;99.90;;;;;;5028655;28;20073;-76
2022/09/26 02:16:48;;;;;;;3.70;2.10;;;11.00;99.90;;;;;;4989911;28;20060;-75
2022/09/26 02:19:35;;;;;;;9.05;2.72;;;10.90;99.90;;;;;;4991787;28;20044;-78
2022/09/26 02:22:01;;;;;;;5.38;2.97;;;11.10;99.90;;;;;;5022876;28;20041;-77
2022/09/26 02:24:27;;;;;;;6.20;2.53;;;11.30;99.90;;;;;;5025845;28;20124;-75
2022/09/26 02:26:53;;;;;;;3.22;2.05;;;11.20;99.90;;;;;;5025897;28;20048;-76
2022/09/26 02:29:20;;;;;;;7.50;3.47;;;11.00;99.90;;;;;;5023438;28;20057;-77
2022/09/26 02:32:01;;;;;;;4.55;2.00;;;11.10;99.90;;;;;;5007293;28;20052;-74
2022/09/26 02:34:28;;;;;;;3.70;2.20;;;10.90;99.90;;;;;;5014010;28;20040;-76
2022/09/26 02:36:56;;;;;;;11.73;2.60;;;11.20;99.90;;;;;;5021009;28;20464;-74
2022/09/26 02:39:22;;;;;;;6.00;2.60;;;10.90;99.90;;;;;;5024850;28;20677;-75
2022/09/26 02:41:59;;;;;;;5.88;2.90;;;11.20;99.90;;;;;;5024305;28;20954;-74
2022/09/26 02:45:12;;;;;;;6.60;3.75;;;11.10;99.90;;;;;;5024676;28;20053;-75
2022/09/26 02:47:43;;;;;;;10.30;2.85;;;11.00;99.90;;;;;;4900458;29;20040;-75
2022/09/26 02:50:36;;;;;;;12.82;4.90;;;10.90;99.90;;;;;;4908876;29;20056;-76
2022/09/26 02:53:27;;;;;;;7.80;2.50;;;10.90;99.90;;;;;;4973246;28;20061;-75
2022/09/26 02:55:55;;;;;;;7.72;2.75;;;11.10;99.90;;;;;;5026695;28;20061;-73
2022/09/26 02:58:37;;;;;;;8.43;2.90;;;11.00;99.90;;;;;;5023076;28;20045;-76
2022/09/26 03:01:27;;;;;;;7.32;2.53;;;11.10;99.90;;;;;;5018988;28;20076;-75
2022/09/26 03:04:07;;;;;;;9.68;2.80;;;11.10;99.90;;;;;;5021566;28;20129;-76
2022/09/26 03:06:39;;;;;;;9.10;2.95;;;11.20;99.90;;;;;;5018539;28;20057;-76
2022/09/26 03:09:06;;;;;;;5.63;2.70;;;11.30;99.90;;;;;;5026892;28;20048;-75
2022/09/26 03:11:34;;;;;;;7.03;2.67;;;11.20;99.90;;;;;;5005104;28;20038;-76
2022/09/26 03:14:01;;;;;;;5.43;3.20;;;11.00;99.90;;;;;;5025466;28;20587;-75
2022/09/26 03:16:33;;;;;;;14.77;4.07;;;11.20;99.90;;;;;;5017330;28;20045;-74
2022/09/26 03:19:25;;;;;;;12.77;4.43;;;11.20;99.90;;;;;;5030552;28;20087;-75
2022/09/26 03:21:51;;;;;;;8.73;3.67;;;11.30;99.90;;;;;;5027591;28;20049;-74
2022/09/26 03:24:17;;;;;;;8.70;3.97;;;11.00;99.90;;;;;;5036963;28;20052;-75
2022/09/26 03:26:43;;;;;;;5.57;3.90;;;11.10;99.90;;;;;;5029094;28;20041;-75
2022/09/26 03:29:09;;;;;;;6.97;3.33;;;11.30;99.90;;;;;;5027538;28;20060;-76
2022/09/26 03:31:35;;;;;;;7.82;4.20;;;11.00;99.90;;;;;;5019538;28;20049;-76
2022/09/26 03:34:00;;;;;;;7.00;3.30;;;11.00;99.90;;;;;;5026748;28;20049;-76
2022/09/26 03:36:27;;;;;;;7.57;4.15;;;11.00;99.90;;;;;;5008060;28;20073;-74
2022/09/26 03:38:53;;;;;;;9.93;3.50;;;11.00;99.90;;;;;;5006891;28;20046;-77
2022/09/26 03:41:18;;;;;;;6.82;3.20;;;11.00;99.90;;;;;;5016046;28;20091;-75
2022/09/26 03:43:44;;;;;;;7.78;3.72;;;11.30;99.90;;;;;;5018629;28;20125;-77
2022/09/26 03:46:11;;;;;;;4.20;3.55;;;11.20;99.90;;;;;;5026526;28;20046;-76
2022/09/26 03:48:37;;;;;;;7.07;3.88;;;11.00;99.90;;;;;;5028279;28;20045;-77
2022/09/26 03:51:08;;;;;;;7.00;3.58;;;11.10;99.90;;;;;;5026383;28;20041;-77
2022/09/26 03:53:37;;;;;;;5.88;3.63;;;11.20;99.90;;;;;;5027057;28;20045;-76
2022/09/26 03:56:15;;;;;;;6.03;3.58;;;11.20;99.90;;;;;;4993034;28;20044;-75
2022/09/26 03:58:42;;;;;;;11.20;4.40;;;11.10;99.90;;;;;;4996501;28;20480;-75
2022/09/26 04:01:16;;;;;;;5.40;3.60;;;11.30;99.90;;;;;;5009579;28;20440;-76
2022/09/26 04:03:44;;;;;;;5.22;3.67;;;11.20;99.90;;;;;;5016316;28;20042;-75
2022/09/26 04:06:10;;;;;;;5.15;4.05;;;11.10;99.90;;;;;;5010054;28;20037;-74
2022/09/26 04:08:37;;;;;;;4.68;3.75;;;11.30;99.90;;;;;;5027953;28;20048;-74
2022/09/26 04:11:06;;;;;;;10.07;4.93;;;11.00;99.90;;;;;;5028209;28;20491;-76
2022/09/26 04:13:32;;;;;;;7.13;4.10;;;11.20;99.90;;;;;;5024877;28;20079;-74
2022/09/26 04:15:59;;;;;;;8.68;3.28;;;11.10;99.90;;;;;;5026917;28;20059;-75
2022/09/26 04:18:26;;;;;;;9.45;3.83;;;11.10;99.90;;;;;;5026082;28;20518;-75
2022/09/26 04:20:59;;;;;;;8.57;3.50;;;10.90;99.90;;;;;;5027512;28;20561;-75
2022/09/26 04:23:29;;;;;;;6.40;3.10;;;11.10;99.90;;;;;;5026736;28;20071;-75
2022/09/26 04:25:55;;;;;;;;;;;11.20;99.90;;;;;;5026986;28;20057;-76
2022/09/26 04:28:23;;;;;;;7.57;3.85;;;11.20;99.90;;;;;;5024733;28;20672;-75
2022/09/26 04:30:48;;;;;;;5.88;3.40;;;11.10;99.90;;;;;;5009455;28;20818;-75
2022/09/26 04:33:14;;;;;;;7.72;4.20;;;11.30;99.90;;;;;;5007349;28;20050;-75
2022/09/26 04:35:40;;;;;;;4.18;3.45;;;11.00;99.90;;;;;;5006152;28;20463;-76
2022/09/26 04:38:05;;;;;;;9.10;4.40;;;11.10;99.90;;;;;;5022729;28;20040;-75
2022/09/26 04:40:31;;;;;;;6.10;4.18;;;11.20;99.90;;;;;;5026691;28;20049;-76
2022/09/26 04:42:57;;;;;;;8.15;3.97;;;11.10;99.90;;;;;;5024878;28;20046;-76
2022/09/26 04:45:23;;;;;;;5.57;4.05;;;11.20;99.90;;;;;;5010083;28;20617;-74
2022/09/26 04:47:49;;;;;;;6.75;3.90;;;11.00;99.90;;;;;;5027490;28;20133;-76
2022/09/26 04:50:15;;;;;;;10.30;5.18;;;11.00;99.90;;;;;;5026287;28;20087;-75
2022/09/26 04:52:41;;;;;;;6.63;3.70;;;10.90;99.90;;;;;;5021644;28;20072;-76
2022/09/26 04:55:07;;;;;;;8.35;3.97;;;11.10;99.90;;;;;;5000376;28;20073;-75
2022/09/26 04:57:33;;;;;;;8.70;4.28;;;10.80;99.90;;;;;;5027442;28;20486;-76
2022/09/26 04:59:59;;;;;;;8.60;4.43;;;11.00;99.90;;;;;;5028494;28;20103;-73
2022/09/26 05:02:24;;;;;;;4.65;4.15;;;11.20;99.90;;;;;;5011978;28;20045;-75
2022/09/26 05:04:50;;;;;;;6.85;4.03;;;11.00;99.90;;;;;;5010179;28;20463;-74
2022/09/26 05:07:17;;;;;;;8.18;5.47;;;10.90;99.90;;;;;;5015362;28;21054;-75
2022/09/26 05:09:43;;;;;;;11.02;5.40;;;11.20;99.90;;;;;;5025074;28;20116;-74
2022/09/26 05:12:11;;;;;;;13.20;5.53;;;11.10;99.90;;;;;;5024491;28;20057;-74
2022/09/26 05:14:37;;;;;;;8.15;4.43;;;10.90;99.90;;;;;;5026808;28;20087;-73
2022/09/26 05:17:03;;;;;;;11.60;5.20;;;11.20;99.90;;;;;;5026597;28;20132;-75
2022/09/26 05:19:29;;;;;;;13.35;6.40;;;10.80;99.90;;;;;;5025532;28;20049;-74
2022/09/26 05:21:54;;;;;;;6.70;4.93;;;11.20;99.90;;;;;;4987374;28;20403;-75
2022/09/26 05:27:06;;;;;;;6.65;4.97;;;11.10;99.90;;;;;;5025223;28;20098;-74
2022/09/26 05:29:32;;;;;;;13.98;5.47;;;11.00;99.90;;;;;;5024659;28;20179;-74
2022/09/26 05:31:58;;;;;;;12.40;5.53;;;10.90;99.90;;;;;;5025402;28;20184;-74
2022/09/26 05:34:25;;;;;;;10.07;5.30;;;10.70;99.90;;;;;;5006123;28;20056;-75
2022/09/26 05:36:51;;;;;;;9.68;5.55;;;10.90;99.90;;;;;;5024888;28;20037;-75
2022/09/26 05:42:04;;;;;;;11.40;5.10;;;10.80;99.90;;;;;;5023147;28;20480;-76
2022/09/26 05:44:30;;;;;;;7.13;5.00;;;10.70;99.90;;;;;;5005036;28;20169;-77
2022/09/26 05:46:56;;;;;;;13.27;6.00;;;10.80;99.90;;;;;;5020183;28;20034;-76
2022/09/26 05:49:22;;;;;;;11.27;6.03;;;10.90;99.90;;;;;;5022582;28;20041;-76
2022/09/26 05:51:48;;;;;;;7.43;4.88;;;10.90;99.90;;;;;;5025357;28;20033;-73
2022/09/26 05:54:14;;;;;;;7.88;4.75;;;11.00;99.90;;;;;;5025843;28;20045;-75
2022/09/26 05:56:39;;;;;;;11.18;5.30;;;10.90;99.90;;;;;;5008978;28;20459;-76
2022/09/26 05:59:05;;;;;;;8.60;4.40;;;10.90;99.90;;;;;;5026333;28;20060;-75
2022/09/26 06:01:32;;;;;;;6.68;4.95;;;10.90;99.90;;;;;;5023514;28;20088;-76
2022/09/26 06:03:58;;;;;;;8.02;4.97;;;10.80;99.90;;;;;;5023143;28;20539;-76
2022/09/26 06:06:24;;;;;;;6.72;4.68;;;10.70;99.90;;;;;;5025629;28;20199;-76
2022/09/26 06:08:50;;;;;;;6.63;3.95;;;10.70;99.90;;;;;;5026169;28;20117;-76
2022/09/26 06:11:21;;;;;;;8.40;3.92;;;10.90;99.90;;;;;;5025798;28;20064;-77
2022/09/26 06:13:48;;;;;;;10.75;5.25;;;10.60;99.90;;;;;;5024026;28;20091;-75
2022/09/26 06:16:19;;;;;;;5.75;3.72;;;10.60;99.90;;;;;;5024767;28;20128;-76
2022/09/26 06:18:49;;;;;;;10.77;4.82;;;10.90;99.90;;;;;;5024168;28;20054;-75
2022/09/26 06:21:17;;;;;;;8.32;4.70;;;10.60;99.90;;;;;;5024107;28;20060;-76
2022/09/26 06:23:43;;;;;;;8.38;4.43;;;10.50;99.90;;;;;;5012365;28;20480;-73
2022/09/26 06:26:13;;;;;;;7.05;4.95;;;10.80;99.90;;;;;;5023510;28;20128;-72
2022/09/26 06:28:39;;;;;;;7.45;4.78;;;10.70;99.90;;;;;;5022312;28;20060;-74
2022/09/26 06:31:09;;;;;;;6.90;3.85;;;10.80;99.90;;;;;;5024941;28;20128;-75
2022/09/26 06:33:35;;;;;;;;;;;10.60;99.90;;;;;;5024715;28;20065;-76
2022/09/26 06:36:05;;;;;;;5.43;4.65;;;10.50;99.90;;;;;;4999568;28;20324;-77
2022/09/26 06:38:31;;;;;;;8.05;4.90;;;10.70;99.90;;;;;;5003472;28;20128;-78
2022/09/26 06:40:57;;;;;;;7.25;5.22;;;10.60;99.90;;;;;;5023210;28;20148;-76
2022/09/26 06:43:23;;;;;;;6.78;4.78;;;10.70;99.90;;;;;;5023240;28;20041;-76
2022/09/26 06:45:49;;;;;;;10.55;4.90;;;10.70;99.90;;;;;;5004196;28;20503;-77
2022/09/26 06:48:16;;;;;;;8.30;5.07;;;10.50;99.90;;;;;;5003584;28;20048;-77
2022/09/26 06:50:42;;;;;;;12.90;5.35;;;10.60;99.90;;;;;;5005621;28;20392;-75
2022/09/26 06:53:07;;;;;;;5.85;3.25;;;10.70;99.90;;;;;;5024107;28;20029;-76
2022/09/26 06:55:33;;;;;;;7.97;4.20;;;10.60;99.90;;;;;;5018934;28;20042;-76
2022/09/26 06:57:59;;;;;;;8.63;4.28;;;10.80;99.90;;;;;;5009054;28;20030;-74
2022/09/26 07:00:25;;;;;;;7.72;5.97;;;10.60;99.90;;;;;;5025292;28;20107;-74
2022/09/26 07:02:53;;;;;;;14.88;8.45;;;10.40;99.90;;;;;;5015594;28;20037;-74
2022/09/26 07:05:23;;;;;;;7.00;4.38;;;10.60;99.90;;;;;;5023452;28;20124;-74
2022/09/26 07:07:49;;;;;;;6.82;5.00;;;10.60;99.90;;;;;;5005716;28;20388;-74
2022/09/26 07:10:19;;;;;;;7.50;4.15;;;10.50;99.90;;;;;;5023472;28;20044;-75
2022/09/26 07:12:46;;;;;;;6.28;4.20;;;10.70;99.90;;;;;;5024233;28;20420;-75
2022/09/26 07:15:15;;;;;;;6.45;3.70;;;10.60;99.90;;;;;;5006872;28;20038;-74
2022/09/26 07:17:42;;;;;;;5.30;3.55;;;10.80;99.90;;;;;;5013783;28;20053;-73
2022/09/26 07:20:12;;;;;;;6.82;4.95;;;10.50;99.90;;;;;;5014220;28;20053;-74
2022/09/26 07:22:38;;;;;;;8.82;4.38;;;10.70;99.90;;;;;;5005686;28;20137;-75
2022/09/26 07:25:05;;;;;;;5.30;3.10;;;10.70;99.90;;;;;;5012907;28;20044;-74
2022/09/26 07:27:31;;;;;;;8.10;3.58;;;10.60;99.90;;;;;;5023195;28;20045;-74
2022/09/26 07:29:57;;;;;;;7.18;3.95;;;10.80;99.90;;;;;;5023511;28;20099;-73
2022/09/26 07:32:24;;;;;;;6.43;3.38;;;10.90;99.90;;;;;;5025055;28;20065;-74
2022/09/26 07:34:52;;;;;;;11.60;4.05;;;10.80;99.90;;;;;;5023452;28;20448;-73
2022/09/26 07:37:17;;;;;;;13.80;3.50;;;10.80;99.90;;;;;;5023839;28;20053;-73
2022/09/26 07:39:44;;;;;;;6.32;2.90;;;10.80;99.90;;;;;;5018391;28;20041;-74
2022/09/26 07:42:09;;;;;;;9.38;4.00;;;10.90;99.90;;;;;;5024718;28;20159;-74
2022/09/26 07:44:35;;;;;;;8.00;3.33;;;11.00;99.90;;;;;;5024828;28;20448;-74
2022/09/26 07:52:30;;;;;;;9.32;4.40;;;11.00;99.90;;;;;;5024155;28;20257;-74
2022/09/26 07:54:56;;;;;;;7.35;3.80;;;11.00;99.90;;;;;;5007769;28;20091;-72
2022/09/26 07:57:22;;;;;;;4.40;2.70;;;11.10;99.90;;;;;;5023306;28;20041;-74
2022/09/26 07:59:49;;;;;;;6.07;3.25;;;10.90;99.90;;;;;;5014176;28;20034;-73
2022/09/26 08:02:23;;;;;;;5.25;2.70;;;11.20;99.90;;;;;;5004942;28;20085;-73
2022/09/26 08:04:49;;;;;;;4.32;2.97;;;11.00;99.90;;;;;;5010529;28;20049;-73
2022/09/26 08:07:15;;;;;;;5.07;2.30;;;11.10;99.90;;;;;;5017437;28;20053;-74
2022/09/26 08:09:41;;;;;;;5.07;2.03;;;11.20;99.90;;;;;;5027043;28;20039;-73
2022/09/26 08:12:07;;;;;;;4.10;2.10;;;11.10;99.90;;;;;;5027252;28;20038;-75
2022/09/26 08:14:33;;;;;;;6.20;2.63;;;11.20;99.90;;;;;;4991861;28;20045;-74
2022/09/26 08:16:58;;;;;;;4.50;3.20;;;11.40;99.90;;;;;;5028041;28;20044;-73
2022/09/26 08:19:24;;;;;;;6.80;2.95;;;11.20;99.90;;;;;;5028246;28;20050;-74
2022/09/26 08:21:50;;;;;;;10.52;2.78;;;11.20;99.90;;;;;;5029041;28;20122;-74
2022/09/26 08:24:16;;;;;;;34.95;2.88;;;11.20;99.90;;;;;;5028779;28;20042;-74
2022/09/26 08:26:41;;;;;;;6.78;2.40;;;11.40;99.90;;;;;;5006510;28;20041;-74
2022/09/26 08:29:11;;;;;;;3.53;2.55;;;11.50;99.90;;;;;;5028163;28;20055;-74
2022/09/26 08:31:40;;;;;;;6.45;2.55;;;11.20;99.90;;;;;;5029091;28;20081;-75
2022/09/26 08:34:07;;;;;;;5.13;2.88;;;11.20;99.90;;;;;;5029702;28;20038;-74
2022/09/26 08:36:35;;;;;;;8.90;2.20;;;11.40;99.90;;;;;;5011215;28;20041;-73
2022/09/26 08:39:40;;;;;;;8.82;4.00;;;11.40;99.90;;;;;;5141342;22;20015;-74
2022/09/26 08:42:31;;;;;;;5.75;2.88;;;11.60;99.90;;;;;;4953037;28;20055;-74
2022/09/26 08:48:33;;;;;;;4.18;2.60;;;11.60;99.90;;;;;;4963850;28;20087;-74
2022/09/26 08:51:18;;;;;;;3.67;2.28;;;11.80;99.90;;;;;;4958234;28;20101;-72
2022/09/26 08:54:00;;;;;;;8.55;2.97;;;11.70;99.90;;;;;;4967795;28;20058;-74
2022/09/26 08:56:38;;;;;;;4.78;2.60;;;11.80;99.90;;;;;;4967025;28;20131;-74
2022/09/26 08:59:09;;;;;;;35.92;5.93;;;11.80;99.90;;;;;;4955738;28;20098;-74
2022/09/26 09:01:40;;;;;;;15.43;4.93;;;11.90;99.90;;;;;;4967127;28;20768;-74
2022/09/26 09:04:35;;;;;;;5.65;2.67;;;11.80;99.90;;;;;;4969629;28;20047;-73
2022/09/26 09:07:14;;;;;;;5.20;2.72;;;11.80;99.90;;;;;;4965026;28;20568;-73
2022/09/26 09:09:40;;;;;;;8.20;2.70;;;11.90;99.90;;;;;;4965388;28;20126;-74
2022/09/26 09:12:11;;;;;;;5.22;2.05;;;11.90;99.90;;;;;;4972933;28;20113;-74
2022/09/26 09:15:13;;;;;;;12.43;3.28;;;11.90;99.90;;;;;;4987242;28;20057;-74
2022/09/26 09:18:01;;;;;;;7.22;2.28;;;11.90;99.90;;;;;;4970849;28;20050;-72
2022/09/26 09:20:57;;;;;;;2.97;1.90;;;11.70;99.90;;;;;;4967428;28;20401;-74
2022/09/26 09:24:00;;;;;;;4.88;2.47;;;12.00;99.90;;;;;;4966226;28;20500;-73
2022/09/26 09:26:54;;;;;;;8.57;2.53;;;12.00;99.90;;;;;;4964873;28;20047;-73
2022/09/26 09:29:44;;;;;;;5.65;2.50;;;11.70;99.90;;;;;;4966341;28;20046;-76
2022/09/26 09:32:15;;;;;;;5.57;2.78;;;11.70;99.90;;;;;;4957270;28;20138;-73
2022/09/26 09:34:45;;;;;;;9.15;2.85;;;11.90;99.90;;;;;;4965774;28;20049;-72
2022/09/26 09:37:19;;;;;;;7.88;3.70;;;11.80;99.90;;;;;;4963950;28;20058;-75
2022/09/26 09:39:47;;;;;;;6.47;3.63;;;11.90;99.90;;;;;;4964627;28;20041;-76
2022/09/26 09:42:19;;;;;;;8.75;3.95;;;11.40;99.90;;;;;;4989224;28;20512;-76
2022/09/26 09:44:53;;;;;;;9.00;4.20;;;11.30;99.90;;;;;;5008359;28;20049;-75
2022/09/26 09:47:20;;;;;;;12.00;4.72;;;11.40;99.90;;;;;;5000877;28;20046;-76
2022/09/26 09:49:50;;;;;;;5.43;3.67;;;11.40;99.90;;;;;;4990570;28;20045;-77
2022/09/26 09:52:34;;;;;;;5.78;3.45;;;11.40;99.90;;;;;;5002215;28;20512;-76
2022/09/26 09:55:24;;;;;;;12.43;4.55;;;11.40;99.90;;;;;;5004928;28;20053;-76
2022/09/26 09:58:06;;;;;;;9.90;5.13;;;11.30;99.90;;;;;;5005314;28;20095;-76
2022/09/26 10:00:40;;;;;;;9.75;4.43;;;11.40;99.90;;;;;;5006275;28;20128;-78
2022/09/26 10:03:24;;;;;;;12.38;4.97;;;11.40;99.90;;;;;;5003748;28;20049;-76
2022/09/26 10:05:56;;;;;;;10.50;4.75;;;11.60;99.90;;;;;;5005224;28;20046;-77
2022/09/26 10:08:35;;;;;;;8.73;4.35;;;11.40;99.90;;;;;;5006139;28;20397;-75
2022/09/26 10:11:18;;;;;;;11.95;5.25;;;11.50;99.90;;;;;;5003798;28;20802;-75
2022/09/26 10:13:47;;;;;;;8.10;5.28;;;11.40;99.90;;;;;;5001430;28;20055;-75
2022/09/26 10:16:14;;;;;;;11.70;5.22;;;11.30;99.90;;;;;;5003789;28;20480;-76
2022/09/26 10:19:05;;;;;;;9.07;4.28;;;11.50;99.90;;;;;;5006541;28;20038;-73
2022/09/26 10:21:38;;;;;;;6.07;4.70;;;11.50;99.90;;;;;;5001380;28;20046;-75
2022/09/26 10:24:06;;;;;;;14.07;5.90;;;11.70;99.90;;;;;;5003344;28;20045;-76
2022/09/26 10:26:35;;;;;;;10.07;5.88;;;11.70;99.90;;;;;;4985600;28;20120;-75
2022/09/26 10:29:06;;;;;;;7.78;6.15;;;11.40;99.90;;;;;;4999234;28;20057;-74
2022/09/26 10:31:38;;;;;;;10.88;5.72;;;11.50;99.90;;;;;;5000594;28;20113;-74
2022/09/26 10:34:31;;;;;;;8.50;5.10;;;11.70;99.90;;;;;;4980600;28;20061;-73
2022/09/26 10:37:10;;;;;;;12.80;6.82;;;11.70;99.90;;;;;;4962776;28;20054;-76
2022/09/26 10:42:24;;;;;;;7.97;5.47;;;11.60;99.90;;;;;;4984993;28;20504;-74
2022/09/26 10:44:56;;;;;;;10.32;6.75;;;11.60;99.90;;;;;;4994807;28;20063;-74
2022/09/26 10:47:25;;;;;;;10.13;6.53;;;11.70;99.90;;;;;;4974222;28;20046;-73
2022/09/26 10:50:02;;;;;;;12.03;6.27;;;11.60;99.90;;;;;;4987670;28;20147;-74
2022/09/26 10:52:42;;;;;;;9.95;5.95;;;11.60;99.90;;;;;;5004725;28;20133;-74
2022/09/26 10:55:12;;;;;;;5.72;4.45;;;11.60;99.90;;;;;;4983234;28;20038;-74
2022/09/26 10:57:45;;;;;;;13.38;7.32;;;11.50;99.90;;;;;;5004052;28;20084;-73
2022/09/26 11:00:37;;;;;;;11.25;6.57;;;11.30;99.90;;;;;;5004839;28;20046;-73
2022/09/26 11:03:05;;;;;;;12.13;6.53;;;11.60;99.90;;;;;;4987362;28;20172;-72
2022/09/26 11:05:55;;;;;;;9.95;5.35;;;11.40;99.90;;;;;;5002569;28;20053;-73
2022/09/26 11:08:28;;;;;;;7.38;5.93;;;11.80;99.90;;;;;;4983232;28;20489;-72
2022/09/26 11:11:04;;;;;;;11.00;6.28;;;11.60;99.90;;;;;;4976472;28;20096;-73
2022/09/26 11:13:38;;;;;;;17.92;6.25;;;11.80;99.90;;;;;;5004392;28;20783;-73
2022/09/26 11:16:08;;;;;;;8.38;5.40;;;11.40;99.90;;;;;;4986370;28;20056;-72
2022/09/26 11:18:57;;;;;;;6.65;5.57;;;11.80;99.90;;;;;;4967965;28;20037;-73
2022/09/26 11:21:52;;;;;;;8.32;6.00;;;11.60;99.90;;;;;;4987580;28;20054;-74
2022/09/26 11:24:29;;;;;;;5.80;5.20;;;11.90;99.90;;;;;;4980841;28;20129;-73
2022/09/26 11:27:04;;;;;;;10.98;5.30;;;11.70;99.90;;;;;;5000717;28;20054;-73
2022/09/26 11:29:44;;;;;;;8.40;5.85;;;12.00;99.90;;;;;;4970645;28;20056;-73
2022/09/26 11:32:17;;;;;;;7.40;4.85;;;11.50;99.90;;;;;;4997085;28;20442;-73
2022/09/26 11:34:44;;;;;;;6.47;4.47;;;11.60;99.90;;;;;;4997822;28;20074;-74
2022/09/26 11:37:29;;;;;;;6.68;5.75;;;11.80;99.90;;;;;;4989069;28;20052;-75
2022/09/26 11:40:04;;;;;;;9.38;6.57;;;12.10;99.90;;;;;;5004113;28;20069;-73
2022/09/26 11:42:51;;;;;;;8.38;5.47;;;11.70;99.90;;;;;;4994032;28;20461;-73
2022/09/26 11:45:40;;;;;;;12.15;6.28;;;11.90;99.90;;;;;;4981043;28;20061;-73
2022/09/26 11:48:33;;;;;;;6.80;6.10;;;12.00;99.90;;;;;;4970829;28;20138;-74
2022/09/26 11:51:02;;;;;;;5.93;4.90;;;11.80;99.90;;;;;;4973636;28;20062;-73
2022/09/26 11:53:50;;;;;;;10.88;5.70;;;12.10;99.90;;;;;;5008009;28;20054;-73
2022/09/26 11:56:55;;;;;;;10.65;5.38;;;12.10;99.90;;;;;;5006827;28;20064;-73
2022/09/26 11:59:56;;;;;;;14.93;6.75;;;11.70;99.90;;;;;;4999707;28;20073;-73
2022/09/26 12:02:33;;;;;;;12.63;6.22;;;11.90;99.90;;;;;;4982152;28;20085;-72
2022/09/26 12:05:19;;;;;;;8.57;6.15;;;11.70;99.90;;;;;;4989842;28;20463;-74
2022/09/26 12:07:51;;;;;;;7.60;5.68;;;12.00;99.90;;;;;;4984681;28;20054;-73
2022/09/26 12:10:35;;;;;;;8.57;5.25;;;12.00;99.90;;;;;;4981344;28;20057;-73
2022/09/26 12:13:33;;;;;;;9.13;6.07;;;11.80;99.90;;;;;;4958582;28;20100;-74
2022/09/26 12:16:08;;;;;;;5.90;5.30;;;12.20;99.90;;;;;;4993713;28;20177;-75
2022/09/26 12:19:04;;;;;;;11.20;7.18;;;12.20;99.90;;;;;;5004198;28;20050;-74
2022/09/26 12:24:58;;;;;;;;;;;11.90;99.90;;;;;;4981013;28;20046;-74
2022/09/26 12:27:29;;;;;;;7.10;6.47;;;12.20;99.90;;;;;;5009599;28;19921;-75
2022/09/26 12:30:05;;;;;;;7.38;6.53;;;12.00;99.90;;;;;;5005894;28;20038;-74
2022/09/26 12:33:09;;;;;;;6.07;5.43;;;12.10;99.90;;;;;;5003038;28;21850;-74
2022/09/26 12:35:45;;;;;;;8.73;6.30;;;12.70;99.90;;;;;;5006796;28;20441;-74
2022/09/26 12:38:27;;;;;;;5.75;4.22;;;12.40;99.90;;;;;;5001483;28;20081;-74
2022/09/26 12:41:02;;;;;;;6.15;4.40;;;12.50;99.90;;;;;;4983439;28;20105;-74
2022/09/26 12:43:43;;;;;;;5.40;4.57;;;12.30;99.90;;;;;;4986687;28;20093;-74
2022/09/26 12:46:41;;;;;;;9.30;4.30;;;12.70;99.90;;;;;;4989477;28;20062;-74
2022/09/26 12:49:46;;;;;;;5.32;4.32;;;12.20;99.90;;;;;;4949560;28;20058;-75
2022/09/26 12:52:44;;;;;;;8.90;4.53;;;12.40;99.90;;;;;;4922745;28;20050;-75
2022/09/26 12:55:35;;;;;;;4.90;4.15;;;12.30;99.90;;;;;;5001648;28;20459;-74
2022/09/26 12:58:24;;;;;;;4.95;3.95;;;12.30;99.90;;;;;;5005673;28;20050;-74
2022/09/26 13:01:04;;;;;;;9.93;4.65;;;12.70;99.90;;;;;;5006936;28;20046;-74
2022/09/26 13:03:54;;;;;;;16.17;5.60;;;12.30;99.90;;;;;;4982758;28;20223;-75
2022/09/26 13:06:41;;;;;;;6.30;4.65;;;12.80;99.90;;;;;;4991262;28;20076;-74
2022/09/26 13:09:13;;;;;;;4.55;3.35;;;12.50;99.90;;;;;;5003514;28;20579;-75
2022/09/26 13:12:02;;;;;;;4.82;4.25;;;12.60;99.90;;;;;;5006646;28;20499;-76
2022/09/26 13:14:40;;;;;;;7.03;4.22;;;12.70;99.90;;;;;;4983265;28;20050;-75
2022/09/26 13:17:12;;;;;;;9.75;4.68;;;12.50;99.90;;;;;;4995136;28;20449;-74
2022/09/26 13:19:50;;;;;;;5.20;4.43;;;12.40;99.90;;;;;;5001330;28;20046;-74
2022/09/26 13:22:28;;;;;;;6.05;3.97;;;12.30;99.90;;;;;;5002914;28;20124;-74
2022/09/26 13:25:21;;;;;;;4.55;3.85;;;12.70;99.90;;;;;;4983743;28;20050;-75
2022/09/26 13:27:54;;;;;;;4.25;3.67;;;12.50;99.90;;;;;;4989602;28;20199;-75
2022/09/26 13:30:34;;;;;;;6.10;3.97;;;12.70;99.90;;;;;;4996960;28;20041;-75
2022/09/26 13:33:35;;;;;;;8.57;4.20;;;13.00;99.90;;;;;;4999126;28;20076;-75
2022/09/26 13:36:03;;;;;;;7.40;4.38;;;12.70;99.90;;;;;;4984857;28;20042;-74
2022/09/26 13:38:40;;;;;;;5.82;3.72;;;12.60;99.90;;;;;;4999235;28;20056;-75
2022/09/26 13:41:24;;;;;;;5.70;4.55;;;13.20;99.90;;;;;;4995834;28;20089;-74